createdAt,value
2018-04-27T08:34:45.906Z,100926.38
2018-04-27T08:37:13.549Z,100921.26
2018-04-27T08:39:41.206Z,100923.00
2018-04-27T08:42:08.909Z,100923.14
2018-04-27T08:44:36.591Z,100915.27
2018-04-27T08:47:04.244Z,100914.20
2018-04-27T08:49:31.929Z,100908.41
2018-04-27T08:51:59.537Z,100905.06
2018-04-27T08:54:27.145Z,100904.37
2018-04-27T08:56:54.776Z,100898.61
2018-04-27T08:59:22.383Z,100891.50
2018-04-27T09:01:50.021Z,100892.45
2018-04-27T09:04:17.617Z,100885.07
2018-04-27T09:06:45.287Z,100888.13
2018-04-27T09:09:12.909Z,100886.81
2018-04-27T09:11:40.557Z,100877.70
2018-04-27T09:14:08.209Z,100868.55
2018-04-27T09:16:35.891Z,100866.86
2018-04-27T09:19:03.627Z,100871.46
2018-04-27T09:21:31.479Z,100869.06
2018-04-27T09:23:59.008Z,100866.40
2018-04-27T09:26:26.714Z,100857.21
2018-04-27T09:28:54.326Z,100862.92
2018-04-27T09:31:21.909Z,100861.25
2018-04-27T09:33:49.545Z,100858.98
2018-04-27T09:36:17.362Z,100846.63
2018-04-27T09:38:45.124Z,100844.88
2018-04-27T09:41:13.215Z,100839.39
2018-04-27T09:43:40.993Z,100824.78
2018-04-27T09:46:08.693Z,100819.02
2018-04-27T09:48:36.401Z,100824.69
2018-04-27T09:51:04.165Z,100815.92
2018-04-27T09:53:31.882Z,100818.77
2018-04-27T09:55:59.655Z,100808.36
2018-04-27T09:58:27.553Z,100805.92
2018-04-27T10:00:55.277Z,100804.88
2018-04-27T10:03:22.914Z,100794.41
2018-04-27T10:05:50.778Z,100785.73
2018-04-27T10:08:18.498Z,100789.53
2018-04-27T10:10:46.173Z,100779.48
2018-04-27T10:13:13.809Z,100772.07
2018-04-27T10:15:41.458Z,100768.73
2018-04-27T10:18:09.114Z,100766.08
2018-04-27T10:20:36.749Z,100758.15
2018-04-27T10:23:04.356Z,100749.30
2018-04-27T10:25:32.015Z,100749.93
2018-04-27T10:27:59.698Z,100751.60
2018-04-27T10:30:27.365Z,100739.71
2018-04-27T10:32:54.991Z,100732.36
2018-04-27T10:35:22.606Z,100744.91
2018-04-27T10:37:50.378Z,100733.20
2018-04-27T10:40:18.039Z,100731.12
2018-04-27T10:42:45.660Z,100736.05
2018-04-27T10:45:13.285Z,100736.33
2018-04-27T10:47:40.938Z,100740.36
2018-04-27T10:50:08.646Z,100726.39
2018-04-27T10:52:36.411Z,100722.38
2018-04-27T10:55:04.003Z,100709.12
2018-04-27T10:57:31.732Z,100706.19
2018-04-27T10:59:59.451Z,100699.72
2018-04-27T11:02:27.125Z,100695.68
2018-04-27T11:04:58.210Z,100692.27
2018-04-27T11:07:26.480Z,100689.91
2018-04-27T11:09:54.554Z,100698.70
2018-04-27T11:12:22.523Z,100689.02
2018-04-27T11:14:50.595Z,100681.50
2018-04-27T11:17:19.754Z,100683.09
2018-04-27T11:19:47.966Z,100674.83
2018-04-27T11:22:16.546Z,100661.44
2018-04-27T11:24:44.518Z,100671.97
2018-04-27T11:27:12.253Z,100664.98
2018-04-27T11:29:41.350Z,100664.05
2018-04-27T11:32:09.318Z,100659.71
2018-04-27T11:34:37.049Z,100657.52
2018-04-27T11:37:04.632Z,100652.16
2018-04-27T11:39:32.269Z,100644.20
2018-04-27T11:41:59.885Z,100637.16
2018-04-27T11:44:27.751Z,100624.20
2018-04-27T11:46:55.372Z,100623.19
2018-04-27T11:49:23.090Z,100624.17
2018-04-27T11:51:50.716Z,100622.12
2018-04-27T11:54:18.354Z,100608.38
2018-04-27T11:56:46.048Z,100593.00
2018-04-27T11:59:13.711Z,100604.28
2018-04-27T12:01:41.390Z,100598.16
2018-04-27T12:04:09.149Z,100585.63
2018-04-27T12:06:36.764Z,100567.64
2018-04-27T12:09:04.378Z,100549.61
2018-04-27T12:11:32.038Z,100555.03
2018-04-27T12:13:59.715Z,100538.77
2018-04-27T12:16:27.590Z,100546.75
2018-04-27T12:18:55.217Z,100542.55
2018-04-27T12:21:22.857Z,100535.16
2018-04-27T12:23:50.513Z,100527.27
2018-04-27T12:26:18.259Z,100530.25
2018-04-27T12:28:45.879Z,100530.27
2018-04-27T12:31:13.647Z,100510.63
2018-04-27T12:33:41.297Z,100511.52
2018-04-27T12:36:09.054Z,100507.52
2018-04-27T12:38:36.649Z,100498.22
2018-04-27T12:41:04.341Z,100499.09
2018-04-27T12:43:31.955Z,100481.31
2018-04-27T12:45:59.535Z,100494.95
2018-04-27T12:48:27.190Z,100482.25
2018-04-27T12:50:54.873Z,100473.09
2018-04-27T12:53:22.591Z,100466.64
2018-04-27T12:55:50.209Z,100461.42
2018-04-27T12:58:18.715Z,100455.36
2018-04-27T13:00:46.391Z,100448.23
2018-04-27T13:03:14.114Z,100426.70
2018-04-27T13:05:41.818Z,100425.46
2018-04-27T13:08:09.440Z,100428.95
2018-04-27T13:10:37.051Z,100431.93
2018-04-27T13:13:04.722Z,100442.00
2018-04-27T13:15:32.316Z,100428.34
2018-04-27T13:17:59.977Z,100428.48
2018-04-27T13:20:27.682Z,100429.77
2018-04-27T13:22:55.370Z,100428.27
2018-04-27T13:25:23.076Z,100424.78
2018-04-27T13:27:50.707Z,100425.02
2018-04-27T13:30:18.405Z,100418.86
2018-04-27T13:32:46.085Z,100419.86
2018-04-27T13:35:13.810Z,100418.39
2018-04-27T13:37:41.419Z,100424.50
2018-04-27T13:40:09.075Z,100422.12
2018-04-27T13:42:36.672Z,100421.33
2018-04-27T13:45:04.313Z,100424.24
2018-04-27T13:47:31.924Z,100422.20
2018-04-27T13:49:59.552Z,100405.91
2018-04-27T13:52:27.166Z,100407.22
2018-04-27T13:54:54.819Z,100400.38
2018-04-27T13:57:22.526Z,100394.09
2018-04-27T13:59:50.131Z,100382.70
2018-04-27T14:02:17.790Z,100387.01
2018-04-27T14:04:45.427Z,100390.27
2018-04-27T14:07:13.137Z,100391.31
2018-04-27T14:09:40.759Z,100388.53
2018-04-27T14:12:08.364Z,100374.47
2018-04-27T14:14:35.991Z,100376.86
2018-04-27T14:17:03.654Z,100378.17
2018-04-27T14:19:31.376Z,100361.56
2018-04-27T14:21:59.061Z,100346.16
2018-04-27T14:24:26.676Z,100337.34
2018-04-27T14:26:54.414Z,100339.41
2018-04-27T14:29:22.105Z,100331.23
2018-04-27T14:31:49.793Z,100326.41
2018-04-27T14:34:17.444Z,100318.32
2018-04-27T14:36:45.156Z,100309.74
2018-04-27T14:39:12.799Z,100305.25
2018-04-27T14:41:40.459Z,100291.89
2018-04-27T14:44:08.113Z,100291.98
2018-04-27T14:46:35.736Z,100288.86
2018-04-27T14:49:03.528Z,100278.70
2018-04-27T14:51:31.094Z,100281.48
2018-04-27T14:53:58.746Z,100287.59
2018-04-27T14:56:27.260Z,100289.28
2018-04-27T14:58:54.895Z,100280.10
2018-04-27T15:01:22.486Z,100281.55
2018-04-27T15:03:50.164Z,100285.59
2018-04-27T15:06:17.798Z,100288.73
2018-04-27T15:08:45.501Z,100286.98
2018-04-27T15:11:13.126Z,100286.20
2018-04-27T15:13:40.733Z,100283.51
2018-04-27T15:16:08.363Z,100292.03
2018-04-27T15:18:35.969Z,100293.39
2018-04-27T15:21:03.622Z,100281.12
2018-04-27T15:23:31.218Z,100267.83
2018-04-27T15:25:58.868Z,100265.74
2018-04-27T15:28:26.496Z,100262.82
2018-04-27T15:30:54.113Z,100263.08
2018-04-27T15:33:21.731Z,100266.27
2018-04-27T15:35:49.457Z,100260.61
2018-04-27T15:38:17.077Z,100263.50
2018-04-27T15:40:44.749Z,100254.44
2018-04-27T15:43:12.420Z,100250.62
2018-04-27T15:45:40.058Z,100244.81
2018-04-27T15:48:07.745Z,100243.84
2018-04-27T15:50:35.361Z,100248.92
2018-04-27T15:53:02.985Z,100253.39
2018-04-27T15:55:30.787Z,100251.27
2018-04-27T15:57:58.442Z,100245.02
2018-04-27T16:00:26.054Z,100245.89
2018-04-27T16:02:53.716Z,100251.65
2018-04-27T16:05:21.337Z,100250.82
2018-04-27T16:07:49.061Z,100247.45
2018-04-27T16:10:16.680Z,100246.27
2018-04-27T16:12:44.304Z,100247.28
2018-04-27T16:15:11.946Z,100241.30
2018-04-27T16:17:39.593Z,100243.22
2018-04-27T16:20:07.205Z,100241.52
2018-04-27T16:22:34.801Z,100226.27
2018-04-27T16:25:02.452Z,100246.77
2018-04-27T16:27:30.073Z,100244.48
2018-04-27T16:29:57.692Z,100238.48
2018-04-27T16:32:25.372Z,100238.71
2018-04-27T16:34:53.026Z,100233.63
2018-04-27T16:37:20.622Z,100228.03
2018-04-27T16:39:48.270Z,100218.77
2018-04-27T16:42:15.890Z,100221.00
2018-04-27T16:44:43.532Z,100224.59
2018-04-27T16:47:11.148Z,100225.96
2018-04-27T16:49:38.801Z,100221.08
2018-04-27T16:52:06.411Z,100214.69
2018-04-27T16:54:34.093Z,100224.29
2018-04-27T16:57:01.658Z,100222.80
2018-04-27T16:59:29.393Z,100223.33
2018-04-27T17:01:56.985Z,100217.41
2018-04-27T17:04:24.581Z,100231.51
2018-04-27T17:06:52.320Z,100230.28
2018-04-27T17:09:19.913Z,100224.19
2018-04-27T17:11:47.547Z,100221.70
2018-04-27T17:14:15.152Z,100208.05
2018-04-27T17:16:42.779Z,100209.56
2018-04-27T17:19:10.418Z,100213.92
2018-04-27T17:21:38.093Z,100211.78
2018-04-27T17:24:05.758Z,100205.77
2018-04-27T17:26:33.451Z,100210.02
2018-04-27T17:29:01.005Z,100208.12
2018-04-27T17:31:28.727Z,100211.16
2018-04-27T17:33:56.389Z,100213.65
2018-04-27T17:36:24.139Z,100206.78
2018-04-27T17:38:51.779Z,100209.41
2018-04-27T17:41:19.401Z,100214.42
2018-04-27T17:43:47.025Z,100209.19
2018-04-27T17:46:14.774Z,100214.91
2018-04-27T17:48:42.565Z,100210.00
2018-04-27T17:51:10.109Z,100211.56
2018-04-27T17:53:37.888Z,100201.08
2018-04-27T17:56:05.517Z,100199.36
2018-04-27T17:58:33.185Z,100199.87
2018-04-27T18:01:00.925Z,100201.71
2018-04-27T18:03:28.586Z,100200.39
2018-04-27T18:05:56.255Z,100206.87
2018-04-27T18:08:23.924Z,100208.75
2018-04-27T18:10:51.650Z,100212.25
2018-04-27T18:13:19.476Z,100213.26
2018-04-27T18:15:47.242Z,100211.19
2018-04-27T18:18:15.155Z,100210.73
2018-04-27T18:20:42.847Z,100217.81
2018-04-27T18:23:10.494Z,100216.89
2018-04-27T18:25:38.329Z,100218.71
2018-04-27T18:28:06.030Z,100218.71
2018-04-27T18:30:33.948Z,100214.39
2018-04-27T18:33:01.572Z,100213.99
2018-04-27T18:35:29.761Z,100223.22
2018-04-27T18:37:57.348Z,100221.91
2018-04-27T18:40:27.295Z,100222.86
2018-04-27T18:42:54.908Z,100222.89
2018-04-27T18:45:22.701Z,100224.27
2018-04-27T18:47:50.666Z,100224.75
2018-04-27T18:50:18.509Z,100227.44
2018-04-27T18:52:46.259Z,100234.91
2018-04-27T18:55:14.099Z,100225.32
2018-04-27T18:57:42.058Z,100229.70
2018-04-27T19:00:09.857Z,100232.76
2018-04-27T19:02:37.763Z,100232.76
2018-04-27T19:05:05.730Z,100232.73
2018-04-27T19:07:33.587Z,100234.94
2018-04-27T19:10:01.446Z,100235.39
2018-04-27T19:12:29.628Z,100239.75
2018-04-27T19:14:57.849Z,100235.39
2018-04-27T19:17:25.970Z,100240.66
2018-04-27T19:19:53.724Z,100245.08
2018-04-27T19:22:37.881Z,100242.89
2018-04-27T19:25:05.715Z,100245.09
2018-04-27T19:27:33.580Z,100245.98
2018-04-27T19:30:01.491Z,100245.54
2018-04-27T19:32:29.740Z,100244.66
2018-04-27T19:34:57.621Z,100245.08
2018-04-27T19:37:26.072Z,100240.27
2018-04-27T19:39:54.873Z,100245.97
2018-04-27T19:42:22.753Z,100246.87
2018-04-27T19:44:50.623Z,100245.99
2018-04-27T19:47:18.662Z,100251.25
2018-04-27T19:49:46.571Z,100249.94
2018-04-27T19:52:14.745Z,100253.42
2018-04-27T19:54:42.560Z,100250.80
2018-04-27T19:57:11.193Z,100250.80
2018-04-27T19:59:40.238Z,100252.11
2018-04-27T20:02:07.926Z,100249.48
2018-04-27T20:04:35.788Z,100248.17
2018-04-27T20:07:03.599Z,100247.72
2018-04-27T20:09:31.330Z,100248.16
2018-04-27T20:11:59.226Z,100253.41
2018-04-27T20:14:43.746Z,100257.81
2018-04-27T20:17:11.487Z,100256.94
2018-04-27T20:19:41.847Z,100259.12
2018-04-27T20:22:22.724Z,100258.25
2018-04-27T20:24:50.463Z,100256.08
2018-04-27T20:27:20.852Z,100254.75
2018-04-27T20:29:48.791Z,100257.39
2018-04-27T20:32:17.365Z,100257.81
2018-04-27T20:34:45.918Z,100265.71
2018-04-27T20:37:13.773Z,100265.69
2018-04-27T20:39:41.883Z,100264.82
2018-04-27T20:42:09.936Z,100267.88
2018-04-27T20:44:37.714Z,100270.49
2018-04-27T20:47:05.344Z,100273.59
2018-04-27T20:49:33.620Z,100277.06
2018-04-27T20:52:01.372Z,100277.52
2018-04-27T20:54:29.065Z,100276.66
2018-04-27T20:56:56.870Z,100278.38
2018-04-27T20:59:24.547Z,100274.44
2018-04-27T21:01:52.378Z,100281.91
2018-04-27T21:04:20.041Z,100278.38
2018-04-27T21:06:47.983Z,100281.38
2018-04-27T21:09:15.942Z,100278.33
2018-04-27T21:11:46.015Z,100280.06
2018-04-27T21:14:13.794Z,100277.02
2018-04-27T21:16:41.552Z,100280.95
2018-04-27T21:19:09.311Z,100276.55
2018-04-27T21:21:37.257Z,100282.70
2018-04-27T21:24:04.914Z,100282.67
2018-04-27T21:26:34.145Z,100292.72
2018-04-27T21:29:01.845Z,100290.09
2018-04-27T21:31:29.559Z,100282.67
2018-04-27T21:33:58.020Z,100289.22
2018-04-27T21:36:28.634Z,100287.92
2018-04-27T21:39:08.492Z,100293.20
2018-04-27T21:44:31.653Z,100297.13
2018-04-27T21:47:05.561Z,100309.81
2018-04-27T21:49:33.149Z,100309.36
2018-04-27T21:52:01.412Z,100313.72
2018-04-27T21:54:31.031Z,100313.28
2018-04-27T21:57:17.423Z,100318.11
2018-04-27T21:59:45.023Z,100321.56
2018-04-27T22:05:41.843Z,100320.67
2018-04-27T22:08:25.795Z,100318.41
2018-04-27T22:10:54.271Z,100322.34
2018-04-27T22:13:24.656Z,100321.00
2018-04-27T22:15:52.201Z,100328.04
2018-04-27T22:18:19.813Z,100328.47
2018-04-27T22:20:47.602Z,100330.23
2018-04-27T22:23:18.414Z,100338.48
2018-04-27T22:25:46.749Z,100337.61
2018-04-27T22:31:23.127Z,100339.28
2018-04-27T22:33:54.392Z,100344.92
2018-04-27T22:36:37.701Z,100342.70
2018-04-27T22:42:08.280Z,100351.48
2018-04-27T22:44:39.441Z,100345.77
2018-04-27T22:47:07.057Z,100347.53
2018-04-27T22:49:34.725Z,100349.23
2018-04-27T22:52:02.605Z,100348.32
2018-04-27T22:54:32.088Z,100346.52
2018-04-27T22:57:01.419Z,100344.67
2018-04-27T22:59:30.037Z,100341.59
2018-04-27T23:02:00.720Z,100346.80
2018-04-27T23:04:28.432Z,100344.59
2018-04-27T23:06:56.467Z,100345.01
2018-04-27T23:09:24.419Z,100347.52
2018-04-27T23:11:52.081Z,100343.60
2018-04-27T23:14:23.531Z,100348.41
2018-04-27T23:16:52.918Z,100350.62
2018-04-27T23:19:20.590Z,100351.05
2018-04-27T23:22:01.920Z,100349.63
2018-04-27T23:24:29.634Z,100354.35
2018-04-27T23:26:57.982Z,100357.31
2018-04-27T23:29:25.594Z,100357.73
2018-04-27T23:31:53.327Z,100360.74
2018-04-27T23:34:23.739Z,100356.31
2018-04-27T23:36:55.349Z,100357.19
2018-04-27T23:39:22.939Z,100366.27
2018-04-27T23:41:50.690Z,100363.20
2018-04-27T23:44:18.457Z,100367.25
2018-04-27T23:46:46.085Z,100363.39
2018-04-27T23:49:13.856Z,100360.75
2018-04-27T23:51:41.492Z,100368.06
2018-04-27T23:54:09.977Z,100371.07
2018-04-27T23:56:39.052Z,100374.59
2018-04-27T23:59:06.715Z,100371.53
